In Rescue
 
Open Full Screen Window  High Contrast Mode
Wind Gusting 14 knots
09
October 25, 2021 3:23 PM CDT
Weather Information
Wind Direction
  140 °
Wind Speed
  09 kt (10 mph)
Wind Gust
  14 kt (16 mph)
Altimeter
30.09 in
Visibility
10 SM
Temperature
10° C
50° F
Dewpoint
01° C
34° F
Humidity
54%
1hr Rain Fall
00.00 in.
24hr Rain Fall
00.00 in.
Sky Condition
Clear
VFR

METAR KVVV 252023Z AUTO 14009G14KT 10SM CLR 10/01 A3009 RMK AO2

FAA Disclaimer: The data displayed is for advisory purposes only and is not to be used for flight planning or operations.